Bookmark and Share
Track history (hours):
 

John G

More information available from US FCC via Universal Licensing System and Coast Guard Vessel Documentation Center.

Last reported at 2014-Apr-17 10:29 UTC. Time now 2014-Apr-18 13:11 UTC.
Position N 29°35' W 090°43'.

Length 30 m; draft 3.3 m.

Type: Towing. MMSI: 367009680.

NotesDate/timePositionNaut miles runAvg speedWind from/ knotsBaromVisibWave heightAir tempDewpointWater temp
2014-Apr-17 10:29N 29°35' W 090°43'0 0.0
2014-Apr-17 07:15N 29°35' W 090°43'0 0.0
2014-Apr-17 06:31N 29°35' W 090°43'16 0.5
2014-Apr-15 20:18N 29°37' W 091°01'5 6.2
2014-Apr-15 19:33N 29°38' W 091°06'4 3.7
2014-Apr-15 18:33N 29°41' W 091°09'2 1.5
2014-Apr-15 17:34N 29°41' W 091°11'0 0.2
2014-Apr-15 16:33N 29°41' W 091°11'5 4.6
2014-Apr-15 15:33N 29°39' W 091°16'5 4.8
2014-Apr-15 14:33N 29°39' W 091°22'5 2.7
2014-Apr-15 12:34N 29°40' W 091°27'0 0.5
2014-Apr-15 11:33N 29°41' W 091°28'0 0.0
2014-Apr-15 10:34N 29°41' W 091°28'0 0.0
2014-Apr-15 09:34N 29°41' W 091°28'0 0.0
2014-Apr-15 08:34N 29°41' W 091°28'0 0.0
2014-Apr-15 07:34N 29°41' W 091°28'0 0.0
2014-Apr-15 06:34N 29°41' W 091°28'0 0.0
2014-Apr-15 05:34N 29°41' W 091°28'0 0.0
2014-Apr-15 03:34N 29°41' W 091°28'0 0.0
2014-Apr-15 02:34N 29°41' W 091°28'0 0.0
2014-Apr-15 01:32N 29°41' W 091°28'0 0.0
2014-Apr-15 00:34N 29°41' W 091°28'0 0.0
2014-Apr-14 23:31N 29°41' W 091°28'0 0.0
2014-Apr-14 22:31N 29°41' W 091°28'12 3.0
2014-Apr-14 18:34N 29°40' W 091°14'4 4.2
2014-Apr-14 17:34N 29°41' W 091°10'0 0.0
2014-Apr-14 16:34N 29°41' W 091°10'5 5.1
2014-Apr-14 15:34N 29°38' W 091°05'7 6.5
2014-Apr-14 14:33N 29°35' W 090°58'  
2014-Apr-12 03:21N 29°32' W 090°47'4 5.0
2014-Apr-12 02:30N 29°32' W 090°52'9 6.7
2014-Apr-12 01:11N 29°37' W 090°60'4 7.0
2014-Apr-12 00:33N 29°38' W 091°05'5 5.0
2014-Apr-11 23:33N 29°41' W 091°09'4 3.6
2014-Apr-11 22:33N 29°41' W 091°13'6 5.9
2014-Apr-11 21:33N 29°38' W 091°19'5 5.5
2014-Apr-11 20:33N 29°39' W 091°25'3 2.5
2014-Apr-11 19:32N 29°41' W 091°28'0 0.0
2014-Apr-11 18:33N 29°41' W 091°28'0 0.0
2014-Apr-11 17:33N 29°41' W 091°28'0 0.0
2014-Apr-11 16:32N 29°41' W 091°28'0 0.0
2014-Apr-11 15:33N 29°41' W 091°28'0 0.0
2014-Apr-11 14:33N 29°41' W 091°28'0 0.0
2014-Apr-11 13:33N 29°41' W 091°28'0 0.0
2014-Apr-11 12:33N 29°41' W 091°28'0 0.0
2014-Apr-11 11:33N 29°41' W 091°28'0 0.0
2014-Apr-11 10:33N 29°41' W 091°28'0 0.0
2014-Apr-11 09:33N 29°41' W 091°28'0 0.0
2014-Apr-11 08:33N 29°41' W 091°28'0 0.0
2014-Apr-11 07:33N 29°41' W 091°28'0 0.0
2014-Apr-11 06:33N 29°41' W 091°28'0 0.0
2014-Apr-11 05:33N 29°41' W 091°28'0 0.0
2014-Apr-11 04:33N 29°41' W 091°28'0 0.0
2014-Apr-11 03:33N 29°41' W 091°28'0 0.0
2014-Apr-11 02:33N 29°41' W 091°28'0 0.0
2014-Apr-11 01:33N 29°41' W 091°28'0 0.0
2014-Apr-11 00:33N 29°41' W 091°28'0 0.0
2014-Apr-10 23:34N 29°41' W 091°28'0 0.0
2014-Apr-10 22:33N 29°41' W 091°28'0 0.0
2014-Apr-10 21:33N 29°41' W 091°28'0 0.0
2014-Apr-10 20:33N 29°41' W 091°28'0 0.0
2014-Apr-10 19:33N 29°41' W 091°28'0 0.0
2014-Apr-10 18:33N 29°41' W 091°28'0 0.0
2014-Apr-10 17:24N 29°41' W 091°28'0 0.0
2014-Apr-10 16:15N 29°41' W 091°28'0 0.0
2014-Apr-10 15:31N 29°41' W 091°28'0 0.0
2014-Apr-10 14:20N 29°41' W 091°28'0 0.0
2014-Apr-10 13:33N 29°41' W 091°28'3 3.4
2014-Apr-10 12:33N 29°39' W 091°24'8 8.4
2014-Apr-10 11:33N 29°39' W 091°15'5 5.1
2014-Apr-10 10:34N 29°41' W 091°09'3 3.0
2014-Apr-10 09:34N 29°39' W 091°07'3 3.3
2014-Apr-10 08:33N 29°37' W 091°04'5 5.2
2014-Apr-10 07:34N 29°36' W 090°58'10 7.2
2014-Apr-10 06:14N 29°32' W 090°48'4 0.1
2014-Apr-08 08:19N 29°34' W 090°44'5 6.0
2014-Apr-08 07:33N 29°32' W 090°49'7 6.8
2014-Apr-08 06:33N 29°34' W 090°56'6 5.6
2014-Apr-08 05:33N 29°37' W 091°01'5 5.2
2014-Apr-08 04:33N 29°38' W 091°07'4 4.0
2014-Apr-08 03:34N 29°41' W 091°11'1 0.5
2014-Apr-08 02:33N 29°41' W 091°11'4 4.2
2014-Apr-08 01:34N 29°39' W 091°16'5 5.5
2014-Apr-08 00:33N 29°39' W 091°22'6 5.5
2014-Apr-07 23:33N 29°41' W 091°28'0 0.2
2014-Apr-07 22:28N 29°41' W 091°28'0 0.0
2014-Apr-07 21:33N 29°41' W 091°28'0 0.0
2014-Apr-07 20:33N 29°41' W 091°28'0 0.0
2014-Apr-07 19:33N 29°41' W 091°28'  

Dump ship's entire track history

sailing weather and tide predictions

John G — WDF2677 — position and weather